createdAt,value
2022-08-22T00:01:30.934Z,17.60
2022-08-22T00:02:49.030Z,18.60
2022-08-22T00:03:00.023Z,19.20
2022-08-22T00:03:06.628Z,17.70
2022-08-22T00:03:10.963Z,18.60
2022-08-22T00:04:08.172Z,17.60
2022-08-22T00:06:38.527Z,17.60
2022-08-22T00:12:03.458Z,17.50
2022-08-22T00:14:46.601Z,17.50
2022-08-22T00:17:46.112Z,17.50
2022-08-22T00:20:44.797Z,17.40
2022-08-22T00:25:59.115Z,17.40
2022-08-22T00:28:35.285Z,17.40
2022-08-22T00:31:20.978Z,17.40
2022-08-22T00:34:03.078Z,17.40
2022-08-22T00:36:39.789Z,17.30
2022-08-22T00:39:41.004Z,17.30
2022-08-22T00:42:31.861Z,17.30
2022-08-22T00:45:37.187Z,17.40
2022-08-22T00:48:32.120Z,17.30
2022-08-22T00:51:12.678Z,17.30
2022-08-22T00:54:16.780Z,17.30
2022-08-22T00:57:26.845Z,17.30
2022-08-22T01:02:52.890Z,17.30
2022-08-22T01:08:22.107Z,17.20
2022-08-22T01:13:40.030Z,17.20
2022-08-22T01:16:35.262Z,17.50
2022-08-22T01:19:14.581Z,17.20
2022-08-22T01:22:10.978Z,17.10
2022-08-22T01:25:21.437Z,17.10
2022-08-22T01:28:25.414Z,17.10
2022-08-22T01:31:30.204Z,17.20
2022-08-22T01:34:31.821Z,17.10
2022-08-22T01:37:14.272Z,17.10
2022-08-22T01:40:19.219Z,17.10
2022-08-22T01:43:10.410Z,17.10
2022-08-22T01:46:03.644Z,17.00
2022-08-22T01:49:02.904Z,17.10
2022-08-22T01:51:38.417Z,17.10
2022-08-22T01:56:43.063Z,17.10
2022-08-22T01:59:25.411Z,17.10
2022-08-22T02:05:05.099Z,17.10
2022-08-22T02:13:01.360Z,17.20
2022-08-22T02:15:49.642Z,17.10
2022-08-22T02:18:26.179Z,17.20
2022-08-22T02:21:15.818Z,17.20
2022-08-22T02:23:59.464Z,17.20
2022-08-22T02:26:41.620Z,17.20
2022-08-22T02:29:19.525Z,17.30
2022-08-22T02:32:02.656Z,17.30
2022-08-22T02:34:55.258Z,17.20
2022-08-22T02:37:36.501Z,17.20
2022-08-22T02:40:12.579Z,17.20
2022-08-22T02:42:57.788Z,17.20
2022-08-22T02:45:39.043Z,17.30
2022-08-22T02:48:31.687Z,17.60
2022-08-22T02:51:15.340Z,17.20
2022-08-22T02:53:54.836Z,17.20
2022-08-22T02:56:49.818Z,17.30
2022-08-22T02:59:57.865Z,17.10
2022-08-22T03:02:54.358Z,17.40
2022-08-22T03:05:36.088Z,17.40
2022-08-22T03:08:13.172Z,17.20
2022-08-22T03:10:47.682Z,17.10
2022-08-22T03:13:26.151Z,17.20
2022-08-22T03:16:13.005Z,17.20
2022-08-22T03:19:18.511Z,17.30
2022-08-22T03:22:12.889Z,17.30
2022-08-22T03:25:01.946Z,17.30
2022-08-22T03:27:55.027Z,17.00
2022-08-22T03:30:56.084Z,17.30
2022-08-22T03:33:27.591Z,17.30
2022-08-22T03:36:31.537Z,17.60
2022-08-22T03:39:35.544Z,17.30
2022-08-22T03:42:24.834Z,17.30
2022-08-22T03:45:15.761Z,17.30
2022-08-22T03:48:20.669Z,17.30
2022-08-22T03:51:07.166Z,17.30
2022-08-22T03:53:46.621Z,17.30
2022-08-22T03:56:42.752Z,17.40
2022-08-22T03:59:48.442Z,17.40
2022-08-22T04:02:48.236Z,17.80
2022-08-22T04:05:36.666Z,17.20
2022-08-22T04:08:21.120Z,17.40
2022-08-22T04:14:03.643Z,17.60
2022-08-22T04:16:49.238Z,17.60
2022-08-22T04:19:49.766Z,17.60
2022-08-22T04:22:41.889Z,17.60
2022-08-22T04:25:19.186Z,17.60
2022-08-22T04:28:25.168Z,17.70
2022-08-22T04:31:22.870Z,17.80
2022-08-22T04:34:32.168Z,17.80
2022-08-22T04:37:06.168Z,17.90
2022-08-22T04:39:57.235Z,18.00
2022-08-22T04:42:36.575Z,17.90
2022-08-22T04:45:24.454Z,18.40
2022-08-22T04:53:36.877Z,19.30
2022-08-22T04:56:21.101Z,19.40
2022-08-22T04:59:07.648Z,19.90
2022-08-22T05:01:54.807Z,20.00
2022-08-22T05:04:28.235Z,19.70
2022-08-22T05:07:12.769Z,19.60
2022-08-22T05:09:45.212Z,19.60
2022-08-22T05:12:18.717Z,19.70
2022-08-22T05:14:58.074Z,19.70
2022-08-22T05:17:30.045Z,19.90
2022-08-22T05:20:08.250Z,20.10
2022-08-22T05:22:45.372Z,20.20
2022-08-22T05:25:34.662Z,20.30
2022-08-22T05:28:40.913Z,20.20
2022-08-22T05:31:16.285Z,18.50
2022-08-22T05:33:48.031Z,20.20
2022-08-22T05:36:41.956Z,20.30
2022-08-22T05:39:18.968Z,20.80
2022-08-22T05:44:30.826Z,21.80
2022-08-22T05:47:27.025Z,22.50
2022-08-22T05:50:21.795Z,22.70
2022-08-22T05:53:10.717Z,22.40
2022-08-22T05:56:02.065Z,23.10
2022-08-22T05:59:00.215Z,23.20
2022-08-22T06:01:56.112Z,24.30
2022-08-22T06:04:27.967Z,24.30
2022-08-22T06:07:07.999Z,24.90
2022-08-22T06:10:05.704Z,25.30
2022-08-22T06:12:43.388Z,25.60
2022-08-22T06:15:48.601Z,25.80
2022-08-22T06:18:22.975Z,26.30
2022-08-22T06:21:02.211Z,27.00
2022-08-22T06:23:56.784Z,27.10
2022-08-22T06:26:26.312Z,27.60
2022-08-22T06:28:56.530Z,27.80
2022-08-22T06:31:32.577Z,29.20
2022-08-22T06:34:24.214Z,29.20
2022-08-22T06:36:53.527Z,29.80
2022-08-22T06:42:17.224Z,31.20
2022-08-22T06:45:16.643Z,31.20
2022-08-22T06:48:12.192Z,31.50
2022-08-22T06:50:42.269Z,31.10
2022-08-22T06:53:40.248Z,30.80
2022-08-22T06:56:24.558Z,30.40
2022-08-22T06:58:56.647Z,29.50
2022-08-22T07:01:51.213Z,29.20
2022-08-22T07:04:22.245Z,28.50
2022-08-22T07:06:51.506Z,28.60
2022-08-22T07:09:40.658Z,29.50
2022-08-22T07:12:20.174Z,29.80
2022-08-22T07:14:59.363Z,29.70
2022-08-22T07:17:30.106Z,29.70
2022-08-22T07:20:25.403Z,29.60
2022-08-22T07:22:54.874Z,31.50
2022-08-22T07:30:27.397Z,31.70
2022-08-22T07:33:26.622Z,31.60
2022-08-22T07:36:00.830Z,30.60
2022-08-22T07:38:56.954Z,29.60
2022-08-22T07:41:55.445Z,29.80
2022-08-22T07:47:13.745Z,30.50
2022-08-22T07:49:58.901Z,30.50
2022-08-22T07:52:35.834Z,31.20
2022-08-22T07:57:41.142Z,31.20
2022-08-22T08:00:20.482Z,31.90
2022-08-22T08:02:58.387Z,32.30
2022-08-22T08:05:31.387Z,32.20
2022-08-22T08:08:02.661Z,33.70
2022-08-22T08:10:35.519Z,32.90
2022-08-22T08:13:08.363Z,33.40
2022-08-22T08:15:37.817Z,33.40
2022-08-22T08:18:11.376Z,33.50
2022-08-22T08:23:10.743Z,33.20
2022-08-22T08:26:00.044Z,33.20
2022-08-22T08:31:08.765Z,32.10
2022-08-22T08:33:40.112Z,31.90
2022-08-22T08:36:36.921Z,31.90
2022-08-22T08:39:14.315Z,32.30
2022-08-22T08:42:12.192Z,32.60
2022-08-22T08:50:41.058Z,34.80
2022-08-22T08:53:32.662Z,35.10
2022-08-22T08:56:03.045Z,35.40
2022-08-22T09:01:34.573Z,34.80
2022-08-22T09:04:43.508Z,32.90
2022-08-22T09:07:32.834Z,35.10
2022-08-22T09:10:02.716Z,34.20
2022-08-22T09:22:50.092Z,35.50
2022-08-22T09:25:23.969Z,34.60
2022-08-22T09:28:33.428Z,34.30
2022-08-22T09:31:17.048Z,34.20
2022-08-22T09:36:43.306Z,33.60
2022-08-22T09:39:25.618Z,33.10
2022-08-22T09:42:28.987Z,33.60
2022-08-22T09:45:34.062Z,33.20
2022-08-22T09:51:28.693Z,34.40
2022-08-22T09:53:55.280Z,35.40
2022-08-22T09:56:32.943Z,35.10
2022-08-22T09:59:07.350Z,34.30
2022-08-22T10:01:42.819Z,34.00
2022-08-22T10:04:42.025Z,33.00
2022-08-22T10:07:18.912Z,33.00
2022-08-22T10:09:57.485Z,33.10
2022-08-22T10:12:47.964Z,33.70
2022-08-22T10:15:17.124Z,33.40
2022-08-22T10:18:10.466Z,33.00
2022-08-22T10:20:57.810Z,32.80
2022-08-22T10:23:35.695Z,32.80
2022-08-22T10:26:25.911Z,32.90
2022-08-22T10:29:12.969Z,33.40
2022-08-22T10:31:59.616Z,34.10
2022-08-22T10:34:46.655Z,34.20
2022-08-22T10:37:40.684Z,34.40
2022-08-22T10:43:12.041Z,34.20
2022-08-22T10:45:51.363Z,34.20
2022-08-22T10:48:40.632Z,35.00
2022-08-22T10:51:17.694Z,34.60
2022-08-22T10:54:20.040Z,35.00
2022-08-22T10:57:11.560Z,35.10
2022-08-22T11:00:02.286Z,35.60
2022-08-22T11:05:29.215Z,35.30
2022-08-22T11:08:24.113Z,35.20
2022-08-22T11:11:17.653Z,35.30
2022-08-22T11:13:54.249Z,35.60
2022-08-22T11:16:41.541Z,35.60
2022-08-22T11:19:34.604Z,36.10
2022-08-22T11:22:23.641Z,36.00
2022-08-22T11:25:29.180Z,36.30
2022-08-22T11:28:41.547Z,36.40
2022-08-22T11:31:21.622Z,36.20
2022-08-22T11:34:29.211Z,36.50
2022-08-22T11:37:11.051Z,35.70
2022-08-22T11:39:45.480Z,35.40
2022-08-22T11:42:23.924Z,35.40
2022-08-22T11:45:02.144Z,35.70
2022-08-22T11:47:33.852Z,35.70
2022-08-22T11:53:09.413Z,36.00
2022-08-22T11:56:01.215Z,36.40
2022-08-22T11:58:51.518Z,35.80
2022-08-22T12:01:27.978Z,35.80
2022-08-22T12:04:09.698Z,35.60
2022-08-22T12:07:11.264Z,35.50
2022-08-22T12:09:50.761Z,35.20
2022-08-22T12:13:03.861Z,34.50
2022-08-22T12:16:04.645Z,34.40
2022-08-22T12:18:34.626Z,34.80
2022-08-22T12:21:21.777Z,34.30
2022-08-22T12:24:47.733Z,34.40
2022-08-22T12:30:13.906Z,34.30
2022-08-22T12:35:30.326Z,33.60
2022-08-22T12:38:26.621Z,33.60
2022-08-22T12:41:28.506Z,33.50
2022-08-22T12:44:23.571Z,32.70
2022-08-22T12:47:09.611Z,32.60
2022-08-22T12:49:52.858Z,32.40
2022-08-22T12:52:38.876Z,32.30
2022-08-22T12:57:56.464Z,31.80
2022-08-22T13:00:40.449Z,31.50
2022-08-22T13:03:13.878Z,31.80
2022-08-22T13:05:56.780Z,31.80
2022-08-22T13:08:39.359Z,31.90
2022-08-22T13:11:22.354Z,31.90
2022-08-22T13:13:56.808Z,31.40
2022-08-22T13:16:26.647Z,30.80
2022-08-22T13:18:57.212Z,30.60
2022-08-22T13:21:31.832Z,30.60
2022-08-22T13:24:12.437Z,30.50
2022-08-22T13:27:02.036Z,30.60
2022-08-22T13:29:49.677Z,30.90
2022-08-22T13:32:44.467Z,30.80
2022-08-22T13:35:30.820Z,30.30
2022-08-22T13:38:12.191Z,30.50
2022-08-22T13:40:46.358Z,30.40
2022-08-22T13:43:22.878Z,30.40
2022-08-22T13:46:11.526Z,30.10
2022-08-22T13:49:00.770Z,28.20
2022-08-22T13:51:53.393Z,30.10
2022-08-22T13:57:17.648Z,29.80
2022-08-22T14:02:47.600Z,29.50
2022-08-22T14:05:35.176Z,29.40
2022-08-22T14:08:16.352Z,29.20
2022-08-22T14:11:03.925Z,29.20
2022-08-22T14:13:46.971Z,29.30
2022-08-22T14:16:28.648Z,28.70
2022-08-22T14:21:45.352Z,28.50
2022-08-22T14:24:25.421Z,28.40
2022-08-22T14:29:31.654Z,28.50
2022-08-22T14:32:22.986Z,28.30
2022-08-22T14:35:37.578Z,28.20
2022-08-22T14:38:31.747Z,28.00
2022-08-22T14:43:57.012Z,27.80
2022-08-22T14:46:50.945Z,27.80
2022-08-22T14:49:47.199Z,27.70
2022-08-22T14:52:32.971Z,27.60
2022-08-22T14:55:23.640Z,27.40
2022-08-22T14:58:06.098Z,27.60
2022-08-22T15:00:56.406Z,27.40
2022-08-22T15:03:29.030Z,27.40
2022-08-22T15:06:03.781Z,27.40
2022-08-22T15:11:27.489Z,27.20
2022-08-22T15:14:23.669Z,27.20
2022-08-22T15:19:41.268Z,27.20
2022-08-22T15:22:24.949Z,27.10
2022-08-22T15:27:30.336Z,27.20
2022-08-22T15:30:01.062Z,27.20
2022-08-22T15:32:35.229Z,27.30
2022-08-22T15:35:17.727Z,27.30
2022-08-22T15:38:02.315Z,27.40
2022-08-22T15:43:20.638Z,27.40
2022-08-22T15:45:49.747Z,27.40
2022-08-22T15:48:36.661Z,27.40
2022-08-22T15:51:13.309Z,27.40
2022-08-22T15:53:51.710Z,27.30
2022-08-22T15:57:06.993Z,27.20
2022-08-22T15:59:55.038Z,27.10
2022-08-22T16:02:29.477Z,27.10
2022-08-22T16:07:44.202Z,27.00
2022-08-22T16:10:23.860Z,27.00
2022-08-22T16:13:16.319Z,26.80
2022-08-22T16:15:55.786Z,26.70
2022-08-22T16:18:42.692Z,26.60
2022-08-22T16:21:25.653Z,26.50
2022-08-22T16:23:57.349Z,26.40
2022-08-22T16:26:41.328Z,26.30
2022-08-22T16:29:16.110Z,26.30
2022-08-22T16:31:45.318Z,26.20
2022-08-22T16:37:12.537Z,26.00
2022-08-22T16:39:42.889Z,25.80
2022-08-22T16:42:16.413Z,25.80
2022-08-22T16:44:49.453Z,25.60
2022-08-22T16:47:31.239Z,25.70
2022-08-22T16:50:09.221Z,25.60
2022-08-22T16:52:52.428Z,25.50
2022-08-22T16:58:11.484Z,25.50
2022-08-22T17:01:10.942Z,25.20
2022-08-22T17:04:00.011Z,25.30
2022-08-22T17:09:19.419Z,25.10
2022-08-22T17:12:16.379Z,24.80
2022-08-22T17:14:46.823Z,24.80
2022-08-22T17:19:51.099Z,24.60
2022-08-22T17:25:35.048Z,24.30
2022-08-22T17:28:34.330Z,24.20
2022-08-22T17:39:00.352Z,23.90
2022-08-22T17:41:49.024Z,23.90
2022-08-22T17:44:20.909Z,23.60
2022-08-22T17:47:18.033Z,23.60
2022-08-22T17:50:00.133Z,23.50
2022-08-22T17:52:34.792Z,23.40
2022-08-22T17:57:44.457Z,23.30
2022-08-22T18:03:31.540Z,23.00
2022-08-22T18:06:07.932Z,23.00
2022-08-22T18:11:51.601Z,22.80
2022-08-22T18:14:40.670Z,22.90
2022-08-22T18:17:26.511Z,22.60
2022-08-22T18:20:17.306Z,22.60
2022-08-22T18:23:21.729Z,22.60
2022-08-22T18:26:44.508Z,22.50
2022-08-22T18:29:17.869Z,22.50
2022-08-22T18:32:01.641Z,22.30
2022-08-22T18:35:09.350Z,22.30
2022-08-22T18:37:37.837Z,22.30
2022-08-22T18:43:14.301Z,22.20
2022-08-22T18:45:47.870Z,22.20
2022-08-22T18:48:54.398Z,22.10
2022-08-22T18:51:38.290Z,22.10
2022-08-22T18:56:54.031Z,21.90
2022-08-22T19:02:34.711Z,21.70
2022-08-22T19:05:26.942Z,21.60
2022-08-22T19:08:30.036Z,21.50
2022-08-22T19:11:36.430Z,21.40
2022-08-22T19:14:15.648Z,21.30
2022-08-22T19:20:13.764Z,21.30
2022-08-22T19:25:27.082Z,21.10
2022-08-22T19:28:12.270Z,21.10
2022-08-22T19:30:44.996Z,21.00
2022-08-22T19:33:17.914Z,20.90
2022-08-22T19:35:47.220Z,20.90
2022-08-22T19:38:53.057Z,20.80
2022-08-22T19:41:49.298Z,20.70
2022-08-22T19:44:19.589Z,20.70
2022-08-22T19:49:37.389Z,20.60
2022-08-22T19:52:22.328Z,20.40
2022-08-22T19:55:09.098Z,22.80
2022-08-22T19:58:09.663Z,20.20
2022-08-22T20:01:25.447Z,20.10
2022-08-22T20:06:44.631Z,19.90
2022-08-22T20:09:21.332Z,19.80
2022-08-22T20:12:17.331Z,19.70
2022-08-22T20:14:47.545Z,19.60
2022-08-22T20:17:27.135Z,19.60
2022-08-22T20:23:06.363Z,19.40
2022-08-22T20:25:48.732Z,19.40
2022-08-22T20:28:36.669Z,19.30
2022-08-22T20:31:12.432Z,19.60
2022-08-22T20:33:43.307Z,18.80
2022-08-22T20:36:28.656Z,19.20
2022-08-22T20:39:10.386Z,19.10
2022-08-22T20:41:49.392Z,19.00
2022-08-22T20:44:24.467Z,18.90
2022-08-22T20:46:57.741Z,18.90
2022-08-22T20:49:57.401Z,18.80
2022-08-22T20:52:43.773Z,18.80
2022-08-22T20:55:31.511Z,18.70
2022-08-22T20:58:06.788Z,18.60
2022-08-22T21:00:44.466Z,18.60
2022-08-22T21:03:32.269Z,18.40
2022-08-22T21:06:35.090Z,18.40
2022-08-22T21:09:47.529Z,18.30
2022-08-22T21:12:15.012Z,18.30
2022-08-22T21:14:46.773Z,18.20
2022-08-22T21:17:21.316Z,18.20
2022-08-22T21:19:49.181Z,18.10
2022-08-22T21:22:19.857Z,18.10
2022-08-22T21:27:29.071Z,18.00
2022-08-22T21:29:57.860Z,17.90
2022-08-22T21:32:34.977Z,17.90
2022-08-22T21:35:04.107Z,17.80
2022-08-22T21:37:40.595Z,17.80
2022-08-22T21:42:45.815Z,17.60
2022-08-22T21:45:39.529Z,17.60
2022-08-22T21:48:34.627Z,17.60
2022-08-22T21:53:48.779Z,17.50
2022-08-22T21:59:52.058Z,17.30
2022-08-22T22:02:37.383Z,17.30
2022-08-22T22:05:13.509Z,17.20
2022-08-22T22:07:42.699Z,17.20
2022-08-22T22:10:12.056Z,17.20
2022-08-22T22:12:44.328Z,16.90
2022-08-22T22:15:17.831Z,17.10
2022-08-22T22:17:45.502Z,17.10
2022-08-22T22:20:15.857Z,17.00
2022-08-22T22:22:46.377Z,17.00
2022-08-22T22:25:39.884Z,17.00
2022-08-22T22:28:13.913Z,16.90
2022-08-22T22:30:42.507Z,16.80
2022-08-22T22:33:10.387Z,16.70
2022-08-22T22:35:40.395Z,16.80
2022-08-22T22:38:08.543Z,16.70
2022-08-22T22:40:36.412Z,16.70
2022-08-22T22:45:32.286Z,16.60
2022-08-22T22:52:55.542Z,16.60
2022-08-22T22:57:58.404Z,16.50
2022-08-22T23:00:30.799Z,16.50
2022-08-22T23:03:01.986Z,16.40
2022-08-22T23:05:30.988Z,16.40
2022-08-22T23:07:58.901Z,16.40
2022-08-22T23:10:27.594Z,16.30
2022-08-22T23:17:50.483Z,16.20
2022-08-22T23:22:46.504Z,17.80
2022-08-22T23:27:42.078Z,16.10
2022-08-22T23:32:38.599Z,16.00
2022-08-22T23:35:06.488Z,16.00
2022-08-22T23:37:34.047Z,16.00
2022-08-22T23:44:57.116Z,16.00
2022-08-22T23:47:24.395Z,16.00
2022-08-22T23:49:51.946Z,16.10
2022-08-22T23:57:26.564Z,15.90
2022-08-22T23:59:57.703Z,15.90
